createdAt,value
2023-03-05T00:01:33.074Z,95672.50
2023-03-05T00:04:01.811Z,95673.13
2023-03-05T00:06:31.815Z,95679.28
2023-03-05T00:09:00.148Z,95674.69
2023-03-05T00:11:30.339Z,95683.38
2023-03-05T00:13:58.950Z,95680.59
2023-03-05T00:16:27.502Z,95678.97
2023-03-05T00:18:56.067Z,95680.38
2023-03-05T00:21:25.489Z,95683.75
2023-03-05T00:23:55.039Z,95683.34
2023-03-05T00:26:24.128Z,95683.56
2023-03-05T00:28:52.659Z,95677.84
2023-03-05T00:31:21.806Z,95675.25
2023-03-05T00:33:53.032Z,95677.72
2023-03-05T00:36:21.093Z,95673.66
2023-03-05T00:38:49.175Z,95663.66
2023-03-05T00:41:18.601Z,95660.81
2023-03-05T00:43:46.598Z,95656.34
2023-03-05T00:46:14.713Z,95649.81
2023-03-05T00:48:42.741Z,95647.13
2023-03-05T00:51:10.752Z,95636.75
2023-03-05T00:53:38.716Z,95640.84
2023-03-05T00:56:07.258Z,95642.81
2023-03-05T00:58:36.700Z,95635.22
2023-03-05T01:01:05.153Z,95632.94
2023-03-05T01:03:34.120Z,95635.22
2023-03-05T01:06:02.628Z,95629.13
2023-03-05T01:08:30.597Z,95626.91
2023-03-05T01:10:58.760Z,95622.75
2023-03-05T01:13:26.730Z,95623.41
2023-03-05T01:15:56.268Z,95624.00
2023-03-05T01:18:24.271Z,95619.88
2023-03-05T01:20:52.297Z,95619.50
2023-03-05T01:23:20.295Z,95606.81
2023-03-05T01:25:54.126Z,95606.03
2023-03-05T01:28:22.075Z,95609.72
2023-03-05T01:30:50.210Z,95603.97
2023-03-05T01:33:20.293Z,95611.34
2023-03-05T01:35:48.894Z,95605.59
2023-03-05T01:38:16.990Z,95605.19
2023-03-05T01:40:45.800Z,95599.28
2023-03-05T01:43:24.644Z,95597.81
2023-03-05T01:46:11.359Z,95599.25
2023-03-05T01:48:41.105Z,95592.09
2023-03-05T01:51:09.514Z,95590.44
2023-03-05T01:53:37.811Z,95585.97
2023-03-05T01:56:07.323Z,95588.25
2023-03-05T01:58:35.350Z,95595.78
2023-03-05T02:01:04.063Z,95584.81
2023-03-05T02:03:33.437Z,95585.97
2023-03-05T02:06:02.969Z,95587.56
2023-03-05T02:08:31.296Z,95580.25
2023-03-05T02:11:00.479Z,95586.16
2023-03-05T02:13:29.467Z,95584.81
2023-03-05T02:15:59.349Z,95583.16
2023-03-05T02:18:27.871Z,95574.63
2023-03-05T02:21:01.145Z,95575.06
2023-03-05T02:23:30.612Z,95580.94
2023-03-05T02:25:58.969Z,95576.66
2023-03-05T02:28:29.710Z,95578.25
2023-03-05T02:30:58.076Z,95565.31
2023-03-05T02:33:26.036Z,95563.59
2023-03-05T02:35:54.290Z,95566.59
2023-03-05T02:38:23.784Z,95560.34
2023-03-05T02:40:52.023Z,95563.00
2023-03-05T02:43:20.120Z,95554.47
2023-03-05T02:45:48.136Z,95565.50
2023-03-05T02:48:16.413Z,95560.94
2023-03-05T02:50:45.288Z,95555.72
2023-03-05T02:53:13.586Z,95559.78
2023-03-05T02:55:43.355Z,95560.19
2023-03-05T02:58:11.313Z,95557.53
2023-03-05T03:00:39.300Z,95553.25
2023-03-05T03:03:07.309Z,95559.16
2023-03-05T03:05:36.287Z,95552.84
2023-03-05T03:08:04.594Z,95554.28
2023-03-05T03:10:32.796Z,95552.84
2023-03-05T03:13:02.166Z,95543.06
2023-03-05T03:15:30.171Z,95543.06
2023-03-05T03:17:58.175Z,95544.72
2023-03-05T03:20:26.150Z,95536.50
2023-03-05T03:22:54.158Z,95532.00
2023-03-05T03:25:23.361Z,95519.38
2023-03-05T03:27:51.520Z,95522.66
2023-03-05T03:30:21.413Z,95521.44
2023-03-05T03:32:49.352Z,95516.72
2023-03-05T03:35:17.866Z,95511.81
2023-03-05T03:37:45.859Z,95519.38
2023-03-05T03:40:14.216Z,95517.13
2023-03-05T03:42:42.173Z,95509.53
2023-03-05T03:45:10.591Z,95507.97
2023-03-05T03:47:40.084Z,95513.53
2023-03-05T03:50:08.466Z,95513.75
2023-03-05T03:52:36.480Z,95509.69
2023-03-05T03:55:04.718Z,95503.19
2023-03-05T03:57:33.575Z,95514.47
2023-03-05T04:00:01.658Z,95500.69
2023-03-05T04:02:29.895Z,95506.00
2023-03-05T04:04:59.266Z,95503.00
2023-03-05T04:07:27.235Z,95494.97
2023-03-05T04:09:55.322Z,95491.72
2023-03-05T04:12:23.417Z,95488.69
2023-03-05T04:14:51.602Z,95484.78
2023-03-05T04:17:19.547Z,95479.84
2023-03-05T04:19:47.479Z,95483.94
2023-03-05T04:22:17.756Z,95478.97
2023-03-05T04:24:46.013Z,95470.69
2023-03-05T04:27:14.059Z,95472.06
2023-03-05T04:29:42.026Z,95474.81
2023-03-05T04:32:10.429Z,95470.91
2023-03-05T04:34:38.931Z,95463.38
2023-03-05T04:37:07.157Z,95472.41
2023-03-05T04:39:36.554Z,95461.81
2023-03-05T04:42:04.546Z,95463.38
2023-03-05T04:44:32.588Z,95461.63
2023-03-05T04:47:00.898Z,95469.97
2023-03-05T04:49:29.135Z,95466.41
2023-03-05T04:51:57.980Z,95462.44
2023-03-05T04:54:25.988Z,95464.13
2023-03-05T04:56:55.339Z,95460.50
2023-03-05T04:59:23.372Z,95459.56
2023-03-05T05:01:51.352Z,95462.28
2023-03-05T05:04:19.365Z,95453.91
2023-03-05T05:06:47.349Z,95445.19
2023-03-05T05:09:15.361Z,95448.22
2023-03-05T05:11:43.337Z,95451.63
2023-03-05T05:14:12.824Z,95444.81
2023-03-05T05:16:41.074Z,95445.25
2023-03-05T05:19:09.690Z,95448.44
2023-03-05T05:21:37.784Z,95434.22
2023-03-05T05:24:06.219Z,95434.81
2023-03-05T05:26:34.244Z,95438.81
2023-03-05T05:29:02.274Z,95425.22
2023-03-05T05:31:31.775Z,95425.44
2023-03-05T05:33:59.837Z,95431.00
2023-03-05T05:36:28.104Z,95432.75
2023-03-05T05:38:56.029Z,95425.84
2023-03-05T05:41:24.043Z,95427.44
2023-03-05T05:43:52.023Z,95434.53
2023-03-05T05:46:20.996Z,95428.34
2023-03-05T05:48:50.542Z,95427.44
2023-03-05T05:51:19.370Z,95432.47
2023-03-05T05:53:47.744Z,95429.72
2023-03-05T05:56:16.674Z,95431.72
2023-03-05T05:58:47.246Z,95441.75
2023-03-05T06:01:16.444Z,95438.81
2023-03-05T06:03:44.400Z,95438.97
2023-03-05T06:06:15.099Z,95441.03
2023-03-05T06:08:43.116Z,95441.47
2023-03-05T06:11:11.209Z,95441.06
2023-03-05T06:13:39.867Z,95434.94
2023-03-05T06:16:11.302Z,95431.63
2023-03-05T06:18:39.469Z,95421.97
2023-03-05T06:21:08.580Z,95428.09
2023-03-05T06:23:38.022Z,95426.03
2023-03-05T06:26:06.748Z,95418.19
2023-03-05T06:28:35.003Z,95421.00
2023-03-05T06:31:03.698Z,95427.09
2023-03-05T06:33:31.993Z,95419.75
2023-03-05T06:36:00.092Z,95415.41
2023-03-05T06:38:28.171Z,95407.91
2023-03-05T06:41:01.552Z,95418.66
2023-03-05T06:43:29.560Z,95422.19
2023-03-05T06:46:03.291Z,95426.59
2023-03-05T06:48:31.349Z,95422.47
2023-03-05T06:50:59.303Z,95426.16
2023-03-05T06:53:27.648Z,95423.66
2023-03-05T06:55:56.172Z,95425.44
2023-03-05T06:58:25.514Z,95426.31
2023-03-05T07:00:53.514Z,95420.28
2023-03-05T07:03:21.507Z,95423.47
2023-03-05T07:05:49.518Z,95423.47
2023-03-05T07:08:17.919Z,95415.31
2023-03-05T07:10:46.043Z,95420.81
2023-03-05T07:13:14.350Z,95423.19
2023-03-05T07:15:45.037Z,95419.97
2023-03-05T07:18:13.064Z,95417.44
2023-03-05T07:20:41.192Z,95422.75
2023-03-05T07:23:09.182Z,95415.81
2023-03-05T07:25:37.291Z,95424.34
2023-03-05T07:28:05.737Z,95425.78
2023-03-05T07:30:33.902Z,95423.81
2023-03-05T07:33:03.491Z,95418.59
2023-03-05T07:35:31.507Z,95415.19
2023-03-05T07:37:59.544Z,95419.38
2023-03-05T07:40:27.550Z,95411.56
2023-03-05T07:42:55.615Z,95423.00
2023-03-05T07:45:23.617Z,95413.19
2023-03-05T07:47:52.678Z,95418.50
2023-03-05T07:50:22.244Z,95414.56
2023-03-05T07:52:50.186Z,95404.38
2023-03-05T07:55:18.185Z,95399.88
2023-03-05T07:57:46.122Z,95390.88
2023-03-05T08:00:14.641Z,95394.50
2023-03-05T08:02:42.654Z,95391.41
2023-03-05T08:05:10.896Z,95394.66
2023-03-05T08:07:41.470Z,95387.28
2023-03-05T08:10:10.621Z,95389.63
2023-03-05T08:12:38.804Z,95392.41
2023-03-05T08:15:07.348Z,95379.25
2023-03-05T08:17:35.365Z,95378.59
2023-03-05T08:20:05.675Z,95385.31
2023-03-05T08:22:35.242Z,95380.97
2023-03-05T08:25:05.671Z,95375.81
2023-03-05T08:27:33.892Z,95372.78
2023-03-05T08:30:02.941Z,95377.91
2023-03-05T08:32:30.990Z,95380.34
2023-03-05T08:34:59.223Z,95372.25
2023-03-05T08:37:27.220Z,95378.69
2023-03-05T08:39:56.366Z,95377.44
2023-03-05T08:42:26.026Z,95375.47
2023-03-05T08:44:54.015Z,95383.56
2023-03-05T08:47:22.192Z,95384.44
2023-03-05T08:49:50.445Z,95371.09
2023-03-05T08:52:18.458Z,95382.63
2023-03-05T08:54:46.412Z,95386.59
2023-03-05T08:57:14.423Z,95380.47
2023-03-05T08:59:43.856Z,95382.97
2023-03-05T09:02:13.410Z,95402.63
2023-03-05T09:04:41.851Z,95383.28
2023-03-05T09:07:09.910Z,95386.03
2023-03-05T09:09:38.207Z,95370.69
2023-03-05T09:12:06.424Z,95372.75
2023-03-05T09:14:34.425Z,95375.00
2023-03-05T09:17:03.852Z,95367.13
2023-03-05T09:19:31.807Z,95366.34
2023-03-05T09:21:59.812Z,95366.31
2023-03-05T09:24:27.874Z,95365.72
2023-03-05T09:26:59.237Z,95359.22
2023-03-05T09:29:27.864Z,95358.72
2023-03-05T09:31:55.926Z,95362.06
2023-03-05T09:34:25.363Z,95361.50
2023-03-05T09:36:53.372Z,95350.97
2023-03-05T09:39:21.443Z,95346.69
2023-03-05T09:42:00.665Z,95353.31
2023-03-05T09:44:34.979Z,95348.06
2023-03-05T09:47:10.094Z,95343.91
2023-03-05T09:49:49.086Z,95340.88
2023-03-05T09:52:19.547Z,95339.47
2023-03-05T09:54:50.510Z,95333.56
2023-03-05T09:57:19.775Z,95331.38
2023-03-05T09:59:50.407Z,95326.09
2023-03-05T10:02:20.853Z,95322.84
2023-03-05T10:04:53.845Z,95314.88
2023-03-05T10:07:25.232Z,95310.84
2023-03-05T10:09:57.109Z,95293.16
2023-03-05T10:12:28.777Z,95291.06
2023-03-05T10:14:57.294Z,95286.00
2023-03-05T10:17:48.906Z,95287.97
2023-03-05T10:20:36.462Z,95282.75
2023-03-05T10:23:12.888Z,95279.81
2023-03-05T10:25:51.610Z,95277.25
2023-03-05T10:28:22.955Z,95275.78
2023-03-05T10:31:00.144Z,95278.63
2023-03-05T10:33:33.599Z,95270.34
2023-03-05T10:36:13.672Z,95283.22
2023-03-05T10:38:49.807Z,95275.97
2023-03-05T10:41:25.367Z,95275.88
2023-03-05T10:43:57.438Z,95271.28
2023-03-05T10:46:31.720Z,95275.91
2023-03-05T10:49:01.086Z,95274.75
2023-03-05T10:51:34.828Z,95275.25
2023-03-05T10:54:06.071Z,95274.44
2023-03-05T10:56:34.366Z,95272.72
2023-03-05T10:59:02.416Z,95271.97
2023-03-05T11:01:31.689Z,95268.19
2023-03-05T11:04:00.855Z,95270.25
2023-03-05T11:06:40.262Z,95265.38
2023-03-05T11:09:19.361Z,95267.59
2023-03-05T11:12:03.619Z,95259.75
2023-03-05T11:14:33.633Z,95250.97
2023-03-05T11:17:02.326Z,95256.75
2023-03-05T11:19:33.156Z,95252.00
2023-03-05T11:22:11.248Z,95263.44
2023-03-05T11:24:41.434Z,95251.50
2023-03-05T11:27:25.563Z,95254.63
2023-03-05T11:29:53.927Z,95262.63
2023-03-05T11:32:24.150Z,95251.97
2023-03-05T11:34:52.671Z,95240.34
2023-03-05T11:37:24.169Z,95238.00
2023-03-05T11:40:06.634Z,95242.31
2023-03-05T11:42:35.202Z,95232.53
2023-03-05T11:45:04.418Z,95223.72
2023-03-05T11:47:39.193Z,95220.13
2023-03-05T11:50:18.518Z,95220.28
2023-03-05T11:52:49.287Z,95215.41
2023-03-05T11:55:19.068Z,95206.31
2023-03-05T11:57:50.314Z,95209.59
2023-03-05T12:00:20.532Z,95203.25
2023-03-05T12:02:51.694Z,95205.53
2023-03-05T12:05:19.825Z,95197.25
2023-03-05T12:07:51.586Z,95196.19
2023-03-05T12:10:21.153Z,95196.19
2023-03-05T12:12:52.839Z,95190.84
2023-03-05T12:15:35.065Z,95179.09
2023-03-05T12:18:08.916Z,95180.41
2023-03-05T12:20:44.288Z,95177.75
2023-03-05T12:23:15.905Z,95181.44
2023-03-05T12:25:48.078Z,95181.63
2023-03-05T12:28:17.011Z,95179.44
2023-03-05T12:31:00.905Z,95175.09
2023-03-05T12:33:34.086Z,95173.94
2023-03-05T12:36:32.296Z,95174.63
2023-03-05T12:39:02.272Z,95164.03
2023-03-05T12:41:39.738Z,95162.34
2023-03-05T12:44:11.856Z,95158.84
2023-03-05T12:48:34.200Z,95157.25
2023-03-05T12:51:04.275Z,95151.28
2023-03-05T12:53:32.561Z,95147.75
2023-03-05T12:56:14.757Z,95107.69
2023-03-05T12:58:45.840Z,95146.69
2023-03-05T13:01:31.995Z,95144.31
2023-03-05T13:04:04.325Z,95144.16
2023-03-05T13:06:36.067Z,95147.81
2023-03-05T13:09:09.236Z,95135.88
2023-03-05T13:11:40.345Z,95138.81
2023-03-05T13:14:29.104Z,95136.72
2023-03-05T13:16:57.886Z,95133.66
2023-03-05T13:19:26.694Z,95137.19
2023-03-05T13:22:04.694Z,95133.72
2023-03-05T13:24:33.259Z,95087.44
2023-03-05T13:27:01.838Z,95033.31
2023-03-05T13:29:31.362Z,95121.31
2023-03-05T13:32:01.869Z,95126.53
2023-03-05T13:34:45.882Z,95131.13
2023-03-05T13:37:20.166Z,95128.97
2023-03-05T13:39:51.547Z,95127.56
2023-03-05T13:42:21.778Z,95121.78
2023-03-05T13:44:57.114Z,95114.66
2023-03-05T13:47:28.671Z,95122.41
2023-03-05T13:50:00.098Z,95121.94
2023-03-05T13:52:34.175Z,95123.66
2023-03-05T13:55:05.493Z,95112.75
2023-03-05T13:57:37.408Z,95119.13
2023-03-05T14:00:07.195Z,95107.66
2023-03-05T14:02:35.527Z,95109.69
2023-03-05T14:05:03.989Z,95076.53
2023-03-05T14:07:39.911Z,95070.31
2023-03-05T14:10:29.483Z,95089.38
2023-03-05T14:12:59.139Z,95071.03
2023-03-05T14:15:29.253Z,95086.91
2023-03-05T14:18:18.035Z,95089.09
2023-03-05T14:21:02.297Z,95057.97
2023-03-05T14:23:40.556Z,95078.47
2023-03-05T14:26:31.471Z,95050.13
2023-03-05T14:29:02.141Z,95076.47
2023-03-05T14:31:32.773Z,95073.34
2023-03-05T14:34:06.744Z,95080.94
2023-03-05T14:36:35.896Z,95049.50
2023-03-05T14:39:06.601Z,95079.28
2023-03-05T14:41:39.104Z,95066.41
2023-03-05T14:44:15.835Z,95071.25
2023-03-05T14:46:45.120Z,95031.63
2023-03-05T14:49:13.551Z,95065.16
2023-03-05T14:51:45.080Z,95066.31
2023-03-05T14:54:26.648Z,95054.91
2023-03-05T14:56:55.636Z,95053.41
2023-03-05T14:59:23.965Z,95047.16
2023-03-05T15:01:52.412Z,95014.28
2023-03-05T15:04:20.893Z,95032.00
2023-03-05T15:06:51.397Z,94996.50
2023-03-05T15:09:21.385Z,95019.00
2023-03-05T15:11:51.488Z,94965.00
2023-03-05T15:14:20.026Z,94949.84
2023-03-05T15:16:49.216Z,95025.03
2023-03-05T15:19:17.680Z,95022.38
2023-03-05T15:21:46.065Z,95022.94
2023-03-05T15:24:15.074Z,95015.31
2023-03-05T15:26:43.403Z,95013.00
2023-03-05T15:29:13.145Z,95007.38
2023-03-05T15:31:41.601Z,95003.81
2023-03-05T15:34:10.005Z,95003.94
2023-03-05T15:36:38.609Z,94932.06
2023-03-05T15:39:07.490Z,94992.19
2023-03-05T15:41:35.865Z,94933.78
2023-03-05T15:44:04.714Z,94959.78
2023-03-05T15:46:36.237Z,94984.41
2023-03-05T15:49:04.664Z,94944.41
2023-03-05T15:51:33.039Z,94810.59
2023-03-05T15:54:01.416Z,94960.38
2023-03-05T15:56:29.945Z,95001.81
2023-03-05T15:58:58.795Z,94978.09
2023-03-05T16:01:27.299Z,94809.44
2023-03-05T16:03:57.306Z,94941.09
2023-03-05T16:06:26.655Z,94986.69
2023-03-05T16:08:59.792Z,94850.03
2023-03-05T16:11:29.251Z,94965.56
2023-03-05T16:13:58.387Z,94990.91
2023-03-05T16:16:27.393Z,94998.97
2023-03-05T16:18:58.357Z,94943.31
2023-03-05T16:21:26.919Z,94980.44
2023-03-05T16:23:56.076Z,94983.41
2023-03-05T16:26:25.529Z,94981.41
2023-03-05T16:28:54.151Z,94981.22
2023-03-05T16:31:22.613Z,94981.72
2023-03-05T16:33:50.983Z,94981.38
2023-03-05T16:36:24.070Z,94980.47
2023-03-05T16:38:54.196Z,94984.63
2023-03-05T16:41:24.380Z,94978.84
2023-03-05T16:43:53.701Z,94976.03
2023-03-05T16:46:22.079Z,94919.56
2023-03-05T16:48:50.713Z,94952.38
2023-03-05T16:51:20.959Z,94973.84
2023-03-05T16:53:49.638Z,94974.47
2023-03-05T16:56:18.599Z,94973.38
2023-03-05T16:58:47.558Z,94967.31
2023-03-05T17:01:19.617Z,94970.69
2023-03-05T17:03:48.947Z,94978.41
2023-03-05T17:06:19.439Z,94896.84
2023-03-05T17:08:50.348Z,94963.56
2023-03-05T17:11:19.356Z,94969.22
2023-03-05T17:13:49.078Z,94972.63
2023-03-05T17:16:19.422Z,94946.25
2023-03-05T17:18:48.173Z,94970.16
2023-03-05T17:21:17.143Z,94969.34
2023-03-05T17:23:45.629Z,94939.03
2023-03-05T17:26:19.032Z,94960.81
2023-03-05T17:28:48.163Z,94957.94
2023-03-05T17:31:16.727Z,94951.81
2023-03-05T17:33:45.389Z,94954.56
2023-03-05T17:36:17.961Z,94953.88
2023-03-05T17:38:47.794Z,94951.28
2023-03-05T17:41:19.021Z,94950.41
2023-03-05T17:43:47.485Z,94955.88
2023-03-05T17:46:16.940Z,94953.81
2023-03-05T17:48:45.720Z,94940.94
2023-03-05T17:51:16.878Z,94946.78
2023-03-05T17:53:46.570Z,94941.84
2023-03-05T17:56:20.482Z,94948.00
2023-03-05T17:58:48.981Z,94947.66
2023-03-05T18:01:24.987Z,94945.81
2023-03-05T18:03:53.425Z,94938.56
2023-03-05T18:06:22.275Z,94830.66
2023-03-05T18:08:51.501Z,94924.88
2023-03-05T18:11:22.772Z,94932.59
2023-03-05T18:13:51.238Z,94940.63
2023-03-05T18:16:19.777Z,94947.81
2023-03-05T18:18:48.133Z,94942.50
2023-03-05T18:21:21.071Z,94941.66
2023-03-05T18:23:51.162Z,94932.91
2023-03-05T18:26:21.179Z,94904.16
2023-03-05T18:28:49.571Z,94940.47
2023-03-05T18:31:18.052Z,94932.97
2023-03-05T18:33:48.112Z,94930.06
2023-03-05T18:36:16.426Z,94927.66
2023-03-05T18:38:44.912Z,94857.59
2023-03-05T18:41:19.951Z,94934.69
2023-03-05T18:43:50.674Z,94895.34
2023-03-05T18:46:19.565Z,94919.22
2023-03-05T18:48:49.381Z,94886.28
2023-03-05T18:51:21.774Z,94916.47
2023-03-05T18:53:51.298Z,94921.53
2023-03-05T18:56:20.915Z,94921.63
2023-03-05T18:58:51.319Z,94918.38
2023-03-05T19:01:20.301Z,94918.63
2023-03-05T19:03:50.340Z,94915.94
2023-03-05T19:06:18.852Z,94912.72
2023-03-05T19:08:47.681Z,94911.69
2023-03-05T19:11:17.529Z,94881.38
2023-03-05T19:13:49.181Z,94910.31
2023-03-05T19:16:21.260Z,94907.31
2023-03-05T19:18:59.967Z,94910.53
2023-03-05T19:21:31.312Z,94855.72
2023-03-05T19:24:02.133Z,94891.94
2023-03-05T19:26:31.967Z,94891.94
2023-03-05T19:29:02.580Z,94880.84
2023-03-05T19:31:34.110Z,94876.59
2023-03-05T19:34:03.997Z,94868.50
2023-03-05T19:36:35.188Z,94868.81
2023-03-05T19:39:06.040Z,94873.19
2023-03-05T19:41:36.223Z,94859.13
2023-03-05T19:44:07.881Z,94870.09
2023-03-05T19:46:40.406Z,94870.91
2023-03-05T19:49:10.406Z,94862.25
2023-03-05T19:51:40.826Z,94863.28
2023-03-05T19:54:10.611Z,94860.06
2023-03-05T19:56:40.714Z,94830.72
2023-03-05T19:59:11.227Z,94848.19
2023-03-05T20:01:44.523Z,94860.06
2023-03-05T20:04:16.851Z,94851.44
2023-03-05T20:06:45.471Z,94851.44
2023-03-05T20:09:14.535Z,94857.34
2023-03-05T20:11:44.598Z,94857.91
2023-03-05T20:14:14.785Z,94856.88
2023-03-05T20:16:46.187Z,94844.63
2023-03-05T20:19:20.502Z,94842.53
2023-03-05T20:21:50.238Z,94837.22
2023-03-05T20:24:21.354Z,94841.41
2023-03-05T20:26:50.961Z,94837.03
2023-03-05T20:29:21.011Z,94851.44
2023-03-05T20:31:56.965Z,94850.75
2023-03-05T20:34:27.728Z,94844.06
2023-03-05T20:36:58.866Z,94844.88
2023-03-05T20:39:28.768Z,94844.97
2023-03-05T20:41:58.439Z,94845.44
2023-03-05T20:44:28.063Z,94838.84
2023-03-05T20:47:13.144Z,94819.16
2023-03-05T20:49:42.763Z,94841.16
2023-03-05T20:52:12.483Z,94829.03
2023-03-05T20:54:42.082Z,94825.22
2023-03-05T20:57:11.956Z,94824.44
2023-03-05T20:59:43.448Z,94797.13
2023-03-05T21:02:14.940Z,94814.63
2023-03-05T21:04:45.111Z,94818.81
2023-03-05T21:07:15.352Z,94814.88
2023-03-05T21:09:45.064Z,94810.84
2023-03-05T21:12:14.914Z,94803.91
2023-03-05T21:14:44.616Z,94797.47
2023-03-05T21:17:16.219Z,94791.81
2023-03-05T21:19:46.379Z,94793.91
2023-03-05T21:22:16.271Z,94794.38
2023-03-05T21:24:56.145Z,94803.16
2023-03-05T21:27:26.123Z,94802.25
2023-03-05T21:29:55.633Z,94793.72
2023-03-05T21:32:27.231Z,94790.16
2023-03-05T21:34:59.407Z,94790.16
2023-03-05T21:37:30.161Z,94789.72
2023-03-05T21:40:00.010Z,94782.56
2023-03-05T21:42:28.552Z,94783.38
2023-03-05T21:44:58.949Z,94774.25
2023-03-05T21:47:30.429Z,94761.47
2023-03-05T21:50:00.846Z,94761.47
2023-03-05T21:52:30.546Z,94759.88
2023-03-05T21:55:00.885Z,94747.94
2023-03-05T21:57:29.770Z,94763.69
2023-03-05T22:00:00.772Z,94670.97
2023-03-05T22:02:32.642Z,94747.22
2023-03-05T22:05:01.552Z,94744.81
2023-03-05T22:07:29.862Z,94735.63
2023-03-05T22:09:58.678Z,94735.75
2023-03-05T22:12:41.860Z,94715.84
2023-03-05T22:15:11.358Z,94728.72
2023-03-05T22:17:41.056Z,94732.28
2023-03-05T22:20:10.656Z,94720.31
2023-03-05T22:22:39.202Z,94732.75
2023-03-05T22:25:08.470Z,94713.06
2023-03-05T22:27:36.874Z,94727.91
2023-03-05T22:30:05.910Z,94607.38
2023-03-05T22:32:35.219Z,94712.47
2023-03-05T22:35:05.981Z,94709.28
2023-03-05T22:37:34.840Z,94708.72
2023-03-05T22:40:03.208Z,94702.34
2023-03-05T22:42:31.475Z,94706.25
2023-03-05T22:45:00.259Z,94718.59
2023-03-05T22:47:28.897Z,94699.81
2023-03-05T22:49:57.375Z,94692.56
2023-03-05T22:52:27.236Z,94693.03
2023-03-05T22:54:56.106Z,94692.22
2023-03-05T22:57:24.467Z,94580.44
2023-03-05T22:59:52.815Z,94691.19
2023-03-05T23:02:21.062Z,94689.34
2023-03-05T23:04:50.370Z,94684.41
2023-03-05T23:07:20.364Z,94677.00
2023-03-05T23:09:55.253Z,94681.84
2023-03-05T23:12:27.005Z,94590.06
2023-03-05T23:14:55.428Z,94657.72
2023-03-05T23:17:23.750Z,94650.28
2023-03-05T23:19:52.386Z,94672.31
2023-03-05T23:22:20.942Z,94676.16
2023-03-05T23:24:49.796Z,94672.56
2023-03-05T23:27:22.445Z,94673.28
2023-03-05T23:30:04.581Z,94667.22
2023-03-05T23:32:32.934Z,94679.09
2023-03-05T23:35:01.278Z,94662.59
2023-03-05T23:37:29.734Z,94680.78
2023-03-05T23:39:58.038Z,94640.78
2023-03-05T23:42:28.106Z,94675.47
2023-03-05T23:44:56.357Z,94672.03
2023-03-05T23:47:24.672Z,94666.41
2023-03-05T23:49:54.425Z,94634.31
2023-03-05T23:52:23.005Z,94587.84
2023-03-05T23:54:51.333Z,94669.59
2023-03-05T23:57:19.622Z,94667.22
2023-03-05T23:59:49.362Z,94663.97
